Time;durP1;ratioP1;P1;durP2;ratioP2;P2;SDS_P1;SDS_P2;PMS_P1;PMS_P2;Temp;Humidity;BMP_temperature;BMP_pressure;BME280_temperature;BME280_humidity;BME280_pressure;Samples;Min_cycle;Max_cycle;Signal;HPM_P1;HPM_P2
2021/03/11 00:02:09;;;;;;;18.58;10.05;;;;;;;;;;5015181;28;20053;-86
2021/03/11 00:04:36;;;;;;;15.68;9.45;;;;;;;;;;4998652;28;20046;-86
2021/03/11 00:07:02;;;;;;;13.73;8.95;;;;;;;;;;5021573;28;20055;-86
2021/03/11 00:09:28;;;;;;;15.20;8.10;;;;;;;;;;5035969;28;20056;-85
2021/03/11 00:11:54;;;;;;;13.40;8.75;;;;;;;;;;5036257;28;20049;-86
2021/03/11 00:14:20;;;;;;;12.55;8.30;;;;;;;;;;5018555;28;20053;-86
2021/03/11 00:16:46;;;;;;;16.08;9.20;;;;;;;;;;5035677;28;20049;-86
2021/03/11 00:19:13;;;;;;;15.25;8.35;;;;;;;;;;5018025;28;20053;-86
2021/03/11 00:21:40;;;;;;;12.05;7.65;;;;;;;;;;5035872;28;20060;-86
2021/03/11 00:24:08;;;;;;;15.70;9.15;;;;;;;;;;5035934;28;20047;-86
2021/03/11 00:26:34;;;;;;;12.93;8.48;;;;;;;;;;5035581;28;20057;-86
2021/03/11 00:29:00;;;;;;;15.75;9.40;;;;;;;;;;5018631;28;20055;-86
2021/03/11 00:31:26;;;;;;;12.90;8.20;;;;;;;;;;5035835;28;20045;-86
2021/03/11 00:33:52;;;;;;;14.88;8.60;;;;;;;;;;5018418;28;20156;-86
2021/03/11 00:36:18;;;;;;;14.52;8.85;;;;;;;;;;5018451;28;20045;-85
2021/03/11 00:38:45;;;;;;;13.73;8.20;;;;;;;;;;5017506;28;20052;-86
2021/03/11 00:41:11;;;;;;;11.90;8.27;;;;;;;;;;5035491;28;20504;-86
2021/03/11 00:43:37;;;;;;;13.90;8.45;;;;;;;;;;5034776;28;20056;-86
2021/03/11 00:46:03;;;;;;;14.18;8.68;;;;;;;;;;5034708;28;20049;-86
2021/03/11 00:48:29;;;;;;;12.65;8.48;;;;;;;;;;5034573;28;20061;-85
2021/03/11 00:50:55;;;;;;;12.65;8.40;;;;;;;;;;5033775;28;20050;-86
2021/03/11 00:53:21;;;;;;;14.55;8.45;;;;;;;;;;5034527;28;20422;-86
2021/03/11 00:55:48;;;;;;;12.93;8.05;;;;;;;;;;5034449;28;20045;-86
2021/03/11 00:58:14;;;;;;;15.60;7.95;;;;;;;;;;5029979;28;20049;-86
2021/03/11 01:00:40;;;;;;;12.65;8.60;;;;;;;;;;5017951;28;20528;-85
2021/03/11 01:03:06;;;;;;;11.98;7.47;;;;;;;;;;5035401;28;20132;-86
2021/03/11 01:05:33;;;;;;;13.73;7.93;;;;;;;;;;5001372;28;20045;-86
2021/03/11 01:08:00;;;;;;;13.05;7.70;;;;;;;;;;5034683;28;20069;-86
2021/03/11 01:10:26;;;;;;;10.88;7.05;;;;;;;;;;5034906;28;20050;-86
2021/03/11 01:12:53;;;;;;;11.07;7.03;;;;;;;;;;5001307;28;20083;-86
2021/03/11 01:15:19;;;;;;;12.45;7.38;;;;;;;;;;5017228;28;20049;-86
2021/03/11 01:17:45;;;;;;;12.82;7.75;;;;;;;;;;5047023;28;20095;-85
2021/03/11 01:20:16;;;;;;;11.75;6.95;;;;;;;;;;5034547;28;20050;-86
2021/03/11 01:22:42;;;;;;;12.52;7.60;;;;;;;;;;5017273;28;20050;-86
2021/03/11 01:25:09;;;;;;;13.57;7.75;;;;;;;;;;5034638;28;20061;-87
2021/03/11 01:27:35;;;;;;;14.82;7.95;;;;;;;;;;5034238;28;20111;-86
2021/03/11 01:30:04;;;;;;;11.07;7.47;;;;;;;;;;5020283;28;20041;-86
2021/03/11 01:32:30;;;;;;;12.60;8.18;;;;;;;;;;5034074;28;20057;-87
2021/03/11 01:34:56;;;;;;;15.25;8.48;;;;;;;;;;5016573;28;20057;-87
2021/03/11 01:37:22;;;;;;;12.00;7.97;;;;;;;;;;5000269;28;20048;-87
2021/03/11 01:39:48;;;;;;;11.82;7.53;;;;;;;;;;5017148;28;20053;-87
2021/03/11 01:42:15;;;;;;;12.55;7.20;;;;;;;;;;5034360;28;20529;-87
2021/03/11 01:44:41;;;;;;;12.93;7.25;;;;;;;;;;5034124;28;20111;-86
2021/03/11 01:47:08;;;;;;;13.57;8.52;;;;;;;;;;5033987;28;20049;-86
2021/03/11 01:49:34;;;;;;;13.68;7.15;;;;;;;;;;5013957;28;20050;-86
2021/03/11 01:52:01;;;;;;;13.02;7.80;;;;;;;;;;5012928;28;20065;-87
2021/03/11 01:54:29;;;;;;;10.90;6.90;;;;;;;;;;5013217;28;20053;-89
2021/03/11 01:56:55;;;;;;;12.23;7.53;;;;;;;;;;4997398;28;20044;-86
2021/03/11 01:59:21;;;;;;;13.73;7.65;;;;;;;;;;5033941;28;20132;-86
2021/03/11 02:01:47;;;;;;;11.75;7.03;;;;;;;;;;5037817;23;20041;-86
2021/03/11 02:04:14;;;;;;;10.40;6.57;;;;;;;;;;5052712;28;20064;-86
2021/03/11 02:06:40;;;;;;;10.70;6.15;;;;;;;;;;5053429;28;20096;-86
2021/03/11 02:09:07;;;;;;;9.10;6.18;;;;;;;;;;5054778;28;20118;-86
2021/03/11 02:11:33;;;;;;;9.85;5.88;;;;;;;;;;5035383;28;20049;-86
2021/03/11 02:14:05;;;;;;;10.52;6.68;;;;;;;;;;5017529;28;20056;-86
2021/03/11 02:16:33;;;;;;;11.48;6.72;;;;;;;;;;5017384;28;20046;-87
2021/03/11 02:19:06;;;;;;;10.27;6.85;;;;;;;;;;5051165;28;20053;-86
2021/03/11 02:21:38;;;;;;;9.98;6.25;;;;;;;;;;5056619;28;20474;-86
2021/03/11 02:24:27;;;;;;;9.57;6.70;;;;;;;;;;5039135;28;20053;-86
2021/03/11 02:27:24;;;;;;;11.80;6.32;;;;;;;;;;5056220;28;20045;-85
2021/03/11 02:29:53;;;;;;;9.63;5.82;;;;;;;;;;5009979;28;20147;-86
2021/03/11 02:32:20;;;;;;;9.13;5.38;;;;;;;;;;5037180;28;20477;-87
2021/03/11 02:34:48;;;;;;;9.18;5.03;;;;;;;;;;5054265;28;20481;-86
2021/03/11 02:37:19;;;;;;;9.70;5.28;;;;;;;;;;5053824;28;20501;-86
2021/03/11 02:39:51;;;;;;;8.13;4.85;;;;;;;;;;5053387;28;20053;-87
2021/03/11 02:42:19;;;;;;;9.35;6.03;;;;;;;;;;5036004;28;20501;-87
2021/03/11 02:44:46;;;;;;;9.27;5.63;;;;;;;;;;5053663;28;20071;-86
2021/03/11 02:47:13;;;;;;;10.38;6.20;;;;;;;;;;5036366;28;20052;-87
2021/03/11 02:49:39;;;;;;;9.55;5.55;;;;;;;;;;5036328;28;20045;-87
2021/03/11 02:52:09;;;;;;;12.00;6.90;;;;;;;;;;5053339;28;20705;-85
2021/03/11 02:54:36;;;;;;;10.63;6.40;;;;;;;;;;5054170;28;20075;-85
2021/03/11 02:57:03;;;;;;;11.05;6.22;;;;;;;;;;5040927;28;20048;-85
2021/03/11 02:59:30;;;;;;;12.65;7.40;;;;;;;;;;5036666;28;20049;-85
2021/03/11 03:01:57;;;;;;;10.23;6.07;;;;;;;;;;5055799;28;20049;-86
2021/03/11 03:04:25;;;;;;;10.32;6.55;;;;;;;;;;5057103;28;20049;-85
2021/03/11 03:06:51;;;;;;;11.50;6.78;;;;;;;;;;5028090;28;20041;-86
2021/03/11 03:09:18;;;;;;;10.10;6.57;;;;;;;;;;5057945;28;20137;-85
2021/03/11 03:11:44;;;;;;;15.05;7.18;;;;;;;;;;5056548;28;20060;-85
2021/03/11 03:14:12;;;;;;;10.30;6.43;;;;;;;;;;5057094;28;20493;-86
2021/03/11 03:16:38;;;;;;;13.43;6.40;;;;;;;;;;5019864;28;20046;-85
2021/03/11 03:19:05;;;;;;;10.55;6.68;;;;;;;;;;5021003;28;20130;-85
2021/03/11 03:21:32;;;;;;;11.75;6.50;;;;;;;;;;5018177;28;20439;-87
2021/03/11 03:23:59;;;;;;;11.25;7.05;;;;;;;;;;5039827;28;20053;-85
2021/03/11 03:26:25;;;;;;;10.38;6.07;;;;;;;;;;5039790;28;20053;-85
2021/03/11 03:28:51;;;;;;;11.35;6.88;;;;;;;;;;5057946;28;20045;-85
2021/03/11 03:31:17;;;;;;;13.88;8.05;;;;;;;;;;5057771;28;20053;-84
2021/03/11 03:33:43;;;;;;;12.07;6.80;;;;;;;;;;5039687;28;20048;-85
2021/03/11 03:36:09;;;;;;;11.60;7.57;;;;;;;;;;5056985;28;20056;-84
2021/03/11 03:38:36;;;;;;;12.20;7.07;;;;;;;;;;5039605;28;20485;-85
2021/03/11 03:41:02;;;;;;;11.45;6.57;;;;;;;;;;5040235;28;20048;-86
2021/03/11 03:43:31;;;;;;;12.82;7.55;;;;;;;;;;5039169;28;20045;-85
2021/03/11 03:46:00;;;;;;;12.68;7.05;;;;;;;;;;5057802;28;20056;-85
2021/03/11 03:48:28;;;;;;;14.65;7.45;;;;;;;;;;5057931;28;20044;-86
2021/03/11 03:50:56;;;;;;;9.30;5.60;;;;;;;;;;5056934;28;20505;-85
2021/03/11 03:53:25;;;;;;;11.88;6.80;;;;;;;;;;5039905;28;20056;-85
2021/03/11 03:55:55;;;;;;;11.32;5.57;;;;;;;;;;5056786;28;20404;-85
2021/03/11 03:58:21;;;;;;;13.88;6.13;;;;;;;;;;5057265;28;20604;-85
2021/03/11 04:00:48;;;;;;;10.93;6.25;;;;;;;;;;5068640;28;20488;-85
2021/03/11 04:03:15;;;;;;;12.02;6.88;;;;;;;;;;5059296;28;20477;-85
2021/03/11 04:05:41;;;;;;;9.77;6.18;;;;;;;;;;5035044;28;20049;-85
2021/03/11 04:08:08;;;;;;;13.52;6.50;;;;;;;;;;5021126;28;20053;-85
2021/03/11 04:10:34;;;;;;;9.82;5.88;;;;;;;;;;5039602;28;20061;-85
2021/03/11 04:13:01;;;;;;;11.35;6.15;;;;;;;;;;5075900;28;20048;-86
2021/03/11 04:15:27;;;;;;;12.32;5.80;;;;;;;;;;5059283;28;20056;-88
2021/03/11 04:17:54;;;;;;;8.02;5.35;;;;;;;;;;5055615;28;20049;-85
2021/03/11 04:20:21;;;;;;;8.80;5.43;;;;;;;;;;5056050;28;20052;-85
2021/03/11 04:22:47;;;;;;;10.23;5.57;;;;;;;;;;5055125;28;20052;-85
2021/03/11 04:25:13;;;;;;;9.05;5.47;;;;;;;;;;5055326;28;20053;-85
2021/03/11 04:27:39;;;;;;;8.50;5.60;;;;;;;;;;5037916;28;20099;-85
2021/03/11 04:30:08;;;;;;;9.32;4.68;;;;;;;;;;5042050;28;20065;-85
2021/03/11 04:32:35;;;;;;;9.57;4.82;;;;;;;;;;5034705;28;20490;-85
2021/03/11 04:35:01;;;;;;;8.45;5.20;;;;;;;;;;5034795;28;20056;-85
2021/03/11 04:37:27;;;;;;;7.53;4.28;;;;;;;;;;5034674;28;20045;-85
2021/03/11 04:39:53;;;;;;;9.77;5.13;;;;;;;;;;5054720;28;20057;-85
2021/03/11 04:42:22;;;;;;;8.55;4.88;;;;;;;;;;5021197;28;20045;-85
2021/03/11 04:44:48;;;;;;;8.15;5.00;;;;;;;;;;5038216;28;20553;-84
2021/03/11 04:47:15;;;;;;;10.07;5.30;;;;;;;;;;5055347;28;20111;-86
2021/03/11 04:49:41;;;;;;;7.90;4.47;;;;;;;;;;5037785;28;20068;-85
2021/03/11 04:52:09;;;;;;;8.48;5.03;;;;;;;;;;5038051;28;20045;-85
2021/03/11 04:54:35;;;;;;;8.27;5.03;;;;;;;;;;5037852;28;20053;-85
2021/03/11 04:57:01;;;;;;;12.18;6.63;;;;;;;;;;5055096;28;20052;-85
2021/03/11 04:59:27;;;;;;;9.77;5.35;;;;;;;;;;5055050;28;21554;-85
2021/03/11 05:01:56;;;;;;;8.63;5.03;;;;;;;;;;5055390;28;20076;-86
2021/03/11 05:04:23;;;;;;;9.90;5.85;;;;;;;;;;5038199;28;20064;-85
2021/03/11 05:06:50;;;;;;;8.55;4.97;;;;;;;;;;5053019;28;20045;-86
2021/03/11 05:09:17;;;;;;;8.07;4.55;;;;;;;;;;5019342;28;20416;-86
2021/03/11 05:11:44;;;;;;;9.13;4.88;;;;;;;;;;5052396;28;20045;-86
2021/03/11 05:14:10;;;;;;;8.95;5.82;;;;;;;;;;5039755;28;20048;-84
2021/03/11 05:16:50;;;;;;;11.15;6.00;;;;;;;;;;5044788;28;20382;-84
2021/03/11 05:19:37;;;;;;;9.90;5.75;;;;;;;;;;5043500;28;20065;-84
2021/03/11 05:22:05;;;;;;;10.88;5.85;;;;;;;;;;5052059;28;20045;-84
2021/03/11 05:24:31;;;;;;;11.07;5.88;;;;;;;;;;5057790;28;20049;-85
2021/03/11 05:26:57;;;;;;;13.18;6.15;;;;;;;;;;5054985;28;20507;-82
2021/03/11 05:29:24;;;;;;;10.30;5.72;;;;;;;;;;5039624;28;20049;-86
2021/03/11 05:31:52;;;;;;;14.32;6.22;;;;;;;;;;5061824;28;20045;-84
2021/03/11 05:34:24;;;;;;;11.07;5.85;;;;;;;;;;5030907;28;20106;-85
2021/03/11 05:36:50;;;;;;;9.45;6.53;;;;;;;;;;5024783;28;20473;-82
2021/03/11 05:39:17;;;;;;;9.73;5.80;;;;;;;;;;5041039;28;20037;-84
2021/03/11 05:41:48;;;;;;;11.15;5.75;;;;;;;;;;5043816;28;20112;-83
2021/03/11 05:44:14;;;;;;;11.75;6.90;;;;;;;;;;5031841;28;20140;-81
2021/03/11 05:46:42;;;;;;;10.48;6.55;;;;;;;;;;5036215;28;20408;-83
2021/03/11 05:49:09;;;;;;;10.65;6.05;;;;;;;;;;5014753;28;20125;-83
2021/03/11 05:51:41;;;;;;;11.57;6.63;;;;;;;;;;5026668;28;20053;-84
2021/03/11 05:54:08;;;;;;;11.02;6.80;;;;;;;;;;5034773;28;20049;-84
2021/03/11 05:56:35;;;;;;;11.85;5.78;;;;;;;;;;5038493;28;20048;-82
2021/03/11 05:59:04;;;;;;;11.32;6.65;;;;;;;;;;5057440;28;20091;-84
2021/03/11 06:01:31;;;;;;;10.60;6.25;;;;;;;;;;5045458;28;20057;-83
2021/03/11 06:04:10;;;;;;;10.15;5.55;;;;;;;;;;5032581;28;20099;-83
2021/03/11 06:06:36;;;;;;;11.85;7.13;;;;;;;;;;5037142;28;20053;-83
2021/03/11 06:09:02;;;;;;;9.75;6.45;;;;;;;;;;5061215;28;20045;-83
2021/03/11 06:11:29;;;;;;;10.55;6.35;;;;;;;;;;5060327;28;20053;-84
2021/03/11 06:13:57;;;;;;;12.07;6.28;;;;;;;;;;5078883;28;20052;-83
2021/03/11 06:16:24;;;;;;;11.07;6.50;;;;;;;;;;5058696;28;20045;-84
2021/03/11 06:18:51;;;;;;;12.15;7.70;;;;;;;;;;5067438;28;20049;-84
2021/03/11 06:21:17;;;;;;;12.30;7.18;;;;;;;;;;5042284;28;20049;-85
2021/03/11 06:23:44;;;;;;;13.13;8.20;;;;;;;;;;5042460;28;20492;-84
2021/03/11 06:26:11;;;;;;;11.57;7.32;;;;;;;;;;5059257;28;20072;-82
2021/03/11 06:28:53;;;;;;;12.77;7.82;;;;;;;;;;5061221;28;20094;-83
2021/03/11 06:31:22;;;;;;;16.58;8.70;;;;;;;;;;5062510;28;20045;-80
2021/03/11 06:33:49;;;;;;;19.33;7.63;;;;;;;;;;5064524;28;20055;-82
2021/03/11 06:36:16;;;;;;;12.95;7.05;;;;;;;;;;5058978;28;20364;-81
2021/03/11 06:38:42;;;;;;;11.48;6.53;;;;;;;;;;5081920;28;20404;-81
2021/03/11 06:41:08;;;;;;;12.85;7.40;;;;;;;;;;5070044;28;20071;-83
2021/03/11 06:43:34;;;;;;;15.45;7.25;;;;;;;;;;5048106;28;20493;-82
2021/03/11 06:46:08;;;;;;;14.25;8.10;;;;;;;;;;5043614;28;20703;-83
2021/03/11 06:48:35;;;;;;;14.70;7.15;;;;;;;;;;5047047;28;20052;-83
2021/03/11 06:51:03;;;;;;;14.57;7.82;;;;;;;;;;5070082;28;20048;-83
2021/03/11 06:53:30;;;;;;;14.32;7.78;;;;;;;;;;5067103;28;20053;-83
2021/03/11 06:56:17;;;;;;;16.85;8.70;;;;;;;;;;5058410;28;20515;-84
2021/03/11 06:58:44;;;;;;;14.65;7.97;;;;;;;;;;5041439;28;20497;-84
2021/03/11 07:01:10;;;;;;;14.57;8.27;;;;;;;;;;5059890;28;20500;-84
2021/03/11 07:03:38;;;;;;;13.63;8.45;;;;;;;;;;5061134;28;20052;-84
2021/03/11 07:06:05;;;;;;;12.73;7.97;;;;;;;;;;5079320;28;20057;-83
2021/03/11 07:08:31;;;;;;;12.02;7.70;;;;;;;;;;5062228;28;20048;-83
2021/03/11 07:11:03;;;;;;;12.88;7.45;;;;;;;;;;5062064;28;20137;-83
2021/03/11 07:13:38;;;;;;;14.30;7.93;;;;;;;;;;5062194;28;20049;-84
2021/03/11 07:16:11;;;;;;;13.38;7.53;;;;;;;;;;5061652;28;20051;-83
2021/03/11 07:18:38;;;;;;;12.75;7.53;;;;;;;;;;5060121;28;20049;-84
2021/03/11 07:21:05;;;;;;;11.10;6.95;;;;;;;;;;5043034;28;20379;-85
2021/03/11 07:23:31;;;;;;;13.40;6.85;;;;;;;;;;5061882;28;20044;-84
2021/03/11 07:25:58;;;;;;;13.32;7.32;;;;;;;;;;5045588;28;20055;-84
2021/03/11 07:28:25;;;;;;;11.43;7.07;;;;;;;;;;5061932;28;20056;-83
2021/03/11 07:30:52;;;;;;;13.68;6.88;;;;;;;;;;5078895;28;20049;-84
2021/03/11 07:33:19;;;;;;;11.48;6.68;;;;;;;;;;5078685;28;20048;-85
2021/03/11 07:35:47;;;;;;;11.25;6.95;;;;;;;;;;5078595;28;20049;-82
2021/03/11 07:38:17;;;;;;;12.93;6.10;;;;;;;;;;5026176;28;20052;-82
2021/03/11 07:40:46;;;;;;;10.85;6.68;;;;;;;;;;5045830;28;20064;-83
2021/03/11 07:43:12;;;;;;;10.88;6.22;;;;;;;;;;5041971;28;20053;-83
2021/03/11 07:45:39;;;;;;;10.75;6.20;;;;;;;;;;5040934;28;20508;-83
2021/03/11 07:48:06;;;;;;;11.20;6.53;;;;;;;;;;5057876;28;20377;-84
2021/03/11 07:50:32;;;;;;;11.18;6.15;;;;;;;;;;5025928;28;20053;-84
2021/03/11 07:52:59;;;;;;;9.57;5.43;;;;;;;;;;5041827;28;20048;-86
2021/03/11 07:55:27;;;;;;;10.52;5.68;;;;;;;;;;5059746;28;20060;-85
2021/03/11 07:57:54;;;;;;;11.50;5.88;;;;;;;;;;5060150;28;20045;-84
2021/03/11 08:00:25;;;;;;;11.07;6.25;;;;;;;;;;5059103;28;20103;-85
2021/03/11 08:02:54;;;;;;;10.02;5.85;;;;;;;;;;5041810;28;20064;-85
2021/03/11 08:05:25;;;;;;;10.02;6.20;;;;;;;;;;5052556;28;20060;-85
2021/03/11 08:08:14;;;;;;;9.13;5.10;;;;;;;;;;5041272;28;20122;-83
2021/03/11 08:10:41;;;;;;;8.85;5.45;;;;;;;;;;5039610;28;20099;-83
2021/03/11 08:13:28;;;;;;;8.95;5.68;;;;;;;;;;5040784;28;20139;-83
2021/03/11 08:15:55;;;;;;;10.02;6.15;;;;;;;;;;5072942;28;20048;-83
2021/03/11 08:18:42;;;;;;;10.85;5.90;;;;;;;;;;5042218;28;20053;-85
2021/03/11 08:21:43;;;;;;;8.45;5.22;;;;;;;;;;5080165;28;20053;-85
2021/03/11 08:24:43;;;;;;;8.50;5.22;;;;;;;;;;5060578;28;20509;-86
2021/03/11 08:27:38;;;;;;;8.32;4.70;;;;;;;;;;5055848;28;20045;-86
2021/03/11 08:30:04;;;;;;;7.50;4.25;;;;;;;;;;5057814;28;20417;-86
2021/03/11 08:32:47;;;;;;;6.95;3.92;;;;;;;;;;5070317;28;20063;-86
2021/03/11 08:35:34;;;;;;;8.73;5.05;;;;;;;;;;5046004;28;20053;-86
2021/03/11 08:38:00;;;;;;;7.82;5.07;;;;;;;;;;5038977;28;20041;-87
2021/03/11 08:40:34;;;;;;;8.18;4.97;;;;;;;;;;5038549;28;20091;-85
2021/03/11 08:43:00;;;;;;;9.10;4.80;;;;;;;;;;5038806;28;20124;-86
2021/03/11 08:46:02;;;;;;;8.60;4.72;;;;;;;;;;5039014;28;20063;-85
2021/03/11 08:48:39;;;;;;;6.82;4.30;;;;;;;;;;5042099;28;20057;-86
2021/03/11 08:51:06;;;;;;;7.45;4.22;;;;;;;;;;5052350;28;20456;-86
2021/03/11 08:53:50;;;;;;;9.20;5.20;;;;;;;;;;5081350;28;20174;-85
2021/03/11 08:56:50;;;;;;;7.78;5.00;;;;;;;;;;5079233;28;20102;-87
2021/03/11 08:59:17;;;;;;;7.20;4.40;;;;;;;;;;5036902;28;20404;-85
2021/03/11 09:01:45;;;;;;;7.70;4.75;;;;;;;;;;5045151;28;20053;-86
2021/03/11 09:04:40;;;;;;;10.25;5.03;;;;;;;;;;5042875;28;20053;-86
2021/03/11 09:07:08;;;;;;;12.95;4.70;;;;;;;;;;5059359;28;20041;-87
2021/03/11 09:09:36;;;;;;;8.43;4.57;;;;;;;;;;5028774;28;20087;-87
2021/03/11 09:12:05;;;;;;;6.55;4.25;;;;;;;;;;5063535;28;20416;-87
2021/03/11 09:14:32;;;;;;;9.02;4.47;;;;;;;;;;5051308;28;20044;-87
2021/03/11 09:17:07;;;;;;;8.90;4.57;;;;;;;;;;5044559;28;20489;-87
2021/03/11 09:19:42;;;;;;;7.32;4.30;;;;;;;;;;5041081;28;20040;-88
2021/03/11 09:22:23;;;;;;;7.65;4.38;;;;;;;;;;5036562;28;20136;-86
2021/03/11 09:25:14;;;;;;;6.90;4.22;;;;;;;;;;5078970;28;20040;-85
2021/03/11 09:27:50;;;;;;;7.07;3.78;;;;;;;;;;5037271;28;20114;-86
2021/03/11 09:30:20;;;;;;;8.23;4.68;;;;;;;;;;5076966;28;20075;-86
2021/03/11 09:32:46;;;;;;;5.85;3.72;;;;;;;;;;5077696;28;20095;-85
2021/03/11 09:35:14;;;;;;;6.88;3.97;;;;;;;;;;5074761;28;20045;-85
2021/03/11 09:37:59;;;;;;;8.48;4.95;;;;;;;;;;5058201;28;20596;-84
2021/03/11 09:40:31;;;;;;;6.95;3.63;;;;;;;;;;5063208;28;20057;-84
2021/03/11 09:43:05;;;;;;;5.45;3.20;;;;;;;;;;5030858;28;20041;-85
2021/03/11 09:45:33;;;;;;;8.05;3.78;;;;;;;;;;5042775;28;20500;-84
2021/03/11 09:48:04;;;;;;;6.28;3.22;;;;;;;;;;5042116;28;20049;-86
2021/03/11 09:50:30;;;;;;;6.75;3.72;;;;;;;;;;5038057;28;20049;-85
2021/03/11 09:52:57;;;;;;;8.75;4.18;;;;;;;;;;5033938;28;20114;-85
2021/03/11 09:55:23;;;;;;;5.85;3.50;;;;;;;;;;5041771;28;20053;-86
2021/03/11 09:57:50;;;;;;;6.10;3.55;;;;;;;;;;5013516;28;20060;-85
2021/03/11 10:00:18;;;;;;;6.15;3.90;;;;;;;;;;5052013;28;20056;-85
2021/03/11 10:02:48;;;;;;;6.30;3.90;;;;;;;;;;5078358;28;20044;-85
2021/03/11 10:05:15;;;;;;;6.53;3.65;;;;;;;;;;5061991;28;20049;-85
2021/03/11 10:07:41;;;;;;;7.63;3.40;;;;;;;;;;5070530;28;20044;-85
2021/03/11 10:10:12;;;;;;;6.70;3.20;;;;;;;;;;5059754;28;20056;-86
2021/03/11 10:12:41;;;;;;;6.82;3.80;;;;;;;;;;5076219;28;20055;-85
2021/03/11 10:15:09;;;;;;;5.78;3.25;;;;;;;;;;5076701;28;20055;-85
2021/03/11 10:17:35;;;;;;;8.40;3.75;;;;;;;;;;5076435;28;20552;-86
2021/03/11 10:20:28;;;;;;;6.55;3.17;;;;;;;;;;5076018;28;20173;-84
2021/03/11 10:23:16;;;;;;;5.38;3.15;;;;;;;;;;5058289;28;20048;-85
2021/03/11 10:25:42;;;;;;;6.25;3.30;;;;;;;;;;5075648;28;20055;-84
2021/03/11 10:28:08;;;;;;;6.22;2.72;;;;;;;;;;5076125;28;20110;-86
2021/03/11 10:30:37;;;;;;;6.03;2.83;;;;;;;;;;5058588;28;20045;-85
2021/03/11 10:33:04;;;;;;;4.93;2.53;;;;;;;;;;5049940;28;20044;-86
2021/03/11 10:35:33;;;;;;;4.78;2.83;;;;;;;;;;5063436;28;20040;-88
2021/03/11 10:38:14;;;;;;;4.88;2.58;;;;;;;;;;5035635;28;20045;-85
2021/03/11 10:40:40;;;;;;;5.28;2.83;;;;;;;;;;5035324;28;20485;-85
2021/03/11 10:43:16;;;;;;;5.68;2.67;;;;;;;;;;5018381;28;20049;-85
2021/03/11 10:45:42;;;;;;;3.88;2.38;;;;;;;;;;5035218;28;20052;-85
2021/03/11 10:48:09;;;;;;;6.35;2.88;;;;;;;;;;5035937;28;20049;-86
2021/03/11 10:50:39;;;;;;;4.78;2.50;;;;;;;;;;5025358;28;20516;-85
2021/03/11 10:53:05;;;;;;;4.38;2.67;;;;;;;;;;5056402;28;20045;-84
2021/03/11 10:55:33;;;;;;;4.13;2.20;;;;;;;;;;5038156;28;20088;-85
2021/03/11 10:58:00;;;;;;;5.90;2.90;;;;;;;;;;5056045;28;20136;-84
2021/03/11 11:00:27;;;;;;;4.78;2.60;;;;;;;;;;5056080;28;20051;-87
2021/03/11 11:02:54;;;;;;;5.63;3.20;;;;;;;;;;5056339;28;20041;-85
2021/03/11 11:05:21;;;;;;;4.43;2.60;;;;;;;;;;5056580;28;20052;-84
2021/03/11 11:07:48;;;;;;;7.18;2.78;;;;;;;;;;5055719;28;20491;-84
2021/03/11 11:10:16;;;;;;;4.85;2.58;;;;;;;;;;5055955;28;20114;-85
2021/03/11 11:12:42;;;;;;;5.63;2.95;;;;;;;;;;5021745;28;20064;-85
2021/03/11 11:15:10;;;;;;;5.63;2.50;;;;;;;;;;5055921;28;20528;-84
2021/03/11 11:17:36;;;;;;;8.45;3.17;;;;;;;;;;5042273;28;20052;-85
2021/03/11 11:20:02;;;;;;;6.07;2.47;;;;;;;;;;5069420;28;20056;-85
2021/03/11 11:22:29;;;;;;;5.65;2.47;;;;;;;;;;5039661;28;20049;-85
2021/03/11 11:24:56;;;;;;;4.90;2.35;;;;;;;;;;5025276;28;20110;-85
2021/03/11 11:27:22;;;;;;;5.72;3.00;;;;;;;;;;5059814;28;20064;-85
2021/03/11 11:29:48;;;;;;;7.20;2.58;;;;;;;;;;5047462;28;20148;-86
2021/03/11 11:32:14;;;;;;;6.03;2.80;;;;;;;;;;5064156;28;20481;-84
2021/03/11 11:34:40;;;;;;;4.90;2.88;;;;;;;;;;5025611;28;20049;-84
2021/03/11 11:37:06;;;;;;;5.22;2.42;;;;;;;;;;5059804;28;20044;-86
2021/03/11 11:39:32;;;;;;;4.40;2.38;;;;;;;;;;5059542;28;20049;-84
2021/03/11 11:41:59;;;;;;;3.45;2.38;;;;;;;;;;5042463;28;20132;-84
2021/03/11 11:44:25;;;;;;;6.28;2.30;;;;;;;;;;5060045;28;20075;-85
2021/03/11 11:46:51;;;;;;;4.78;2.58;;;;;;;;;;5041534;28;20048;-85
2021/03/11 11:49:17;;;;;;;5.22;2.72;;;;;;;;;;5041207;28;20045;-85
2021/03/11 11:51:43;;;;;;;5.38;2.67;;;;;;;;;;5021113;28;20045;-84
2021/03/11 11:54:10;;;;;;;8.25;2.70;;;;;;;;;;5056095;28;20048;-84
2021/03/11 11:56:36;;;;;;;5.30;2.28;;;;;;;;;;5060125;28;20097;-84
2021/03/11 11:59:03;;;;;;;5.85;3.08;;;;;;;;;;5059713;28;20093;-83
2021/03/11 12:01:29;;;;;;;7.03;2.63;;;;;;;;;;5060110;28;20056;-84
2021/03/11 12:03:55;;;;;;;12.77;2.78;;;;;;;;;;5059980;28;20054;-84
2021/03/11 12:06:21;;;;;;;4.70;2.70;;;;;;;;;;5044924;28;20049;-84
2021/03/11 12:08:48;;;;;;;6.97;2.92;;;;;;;;;;5077850;28;20093;-84
2021/03/11 12:11:14;;;;;;;5.53;2.10;;;;;;;;;;5059711;28;20706;-84
2021/03/11 12:13:41;;;;;;;4.68;2.28;;;;;;;;;;5077940;28;20677;-85
2021/03/11 12:16:08;;;;;;;7.72;2.20;;;;;;;;;;5043682;28;20065;-85
2021/03/11 12:18:34;;;;;;;4.00;2.50;;;;;;;;;;5077893;28;20045;-85
2021/03/11 12:21:00;;;;;;;4.55;2.30;;;;;;;;;;5059729;28;20097;-84
2021/03/11 12:23:26;;;;;;;4.82;2.13;;;;;;;;;;5064146;28;20056;-85
2021/03/11 12:25:52;;;;;;;4.05;2.00;;;;;;;;;;5058351;28;20132;-84
2021/03/11 12:28:18;;;;;;;3.45;1.58;;;;;;;;;;5040214;28;20045;-85
2021/03/11 12:30:44;;;;;;;7.60;2.10;;;;;;;;;;5060960;28;20044;-83
2021/03/11 12:33:11;;;;;;;5.97;2.15;;;;;;;;;;5051831;28;20497;-83
2021/03/11 12:35:37;;;;;;;3.35;2.10;;;;;;;;;;5076569;28;20049;-83
2021/03/11 12:38:04;;;;;;;2.80;1.63;;;;;;;;;;5060825;28;20409;-84
2021/03/11 12:40:31;;;;;;;4.97;2.00;;;;;;;;;;5060803;28;20052;-83
2021/03/11 12:42:58;;;;;;;4.50;2.08;;;;;;;;;;5060446;28;20056;-83
2021/03/11 12:45:25;;;;;;;6.45;2.17;;;;;;;;;;5078368;28;20052;-83
2021/03/11 12:47:51;;;;;;;4.07;1.98;;;;;;;;;;5070162;28;20868;-84
2021/03/11 12:50:19;;;;;;;4.43;2.15;;;;;;;;;;5061744;28;20118;-83
2021/03/11 12:52:46;;;;;;;2.80;1.80;;;;;;;;;;5042354;28;20052;-84
2021/03/11 12:55:12;;;;;;;4.25;1.83;;;;;;;;;;5041797;28;20051;-84
2021/03/11 12:57:41;;;;;;;4.25;1.83;;;;;;;;;;5078722;28;20106;-85
2021/03/11 13:00:09;;;;;;;3.17;1.38;;;;;;;;;;5069079;28;20075;-84
2021/03/11 13:02:35;;;;;;;5.05;1.50;;;;;;;;;;5058717;28;20056;-84
2021/03/11 13:05:02;;;;;;;4.03;1.45;;;;;;;;;;5041713;28;20115;-83
2021/03/11 13:07:29;;;;;;;2.45;1.25;;;;;;;;;;5069630;28;20437;-84
2021/03/11 13:09:55;;;;;;;2.40;1.30;;;;;;;;;;5078620;28;20060;-83
2021/03/11 13:12:21;;;;;;;4.50;1.20;;;;;;;;;;5078548;28;20234;-84
2021/03/11 13:14:47;;;;;;;3.10;1.27;;;;;;;;;;5078788;28;20056;-84
2021/03/11 13:17:13;;;;;;;4.07;1.45;;;;;;;;;;5077707;28;20056;-83
2021/03/11 13:19:40;;;;;;;4.47;1.30;;;;;;;;;;5078183;28;20045;-84
2021/03/11 13:22:06;;;;;;;4.70;1.10;;;;;;;;;;5078233;28;20747;-83
2021/03/11 13:24:33;;;;;;;2.47;1.05;;;;;;;;;;5078916;28;20132;-85
2021/03/11 13:26:59;;;;;;;4.00;1.02;;;;;;;;;;5058125;28;20121;-84
2021/03/11 13:29:25;;;;;;;1.73;1.00;;;;;;;;;;5058749;28;20045;-83
2021/03/11 13:31:51;;;;;;;2.55;1.20;;;;;;;;;;5070399;28;20048;-84
2021/03/11 13:34:17;;;;;;;2.20;1.40;;;;;;;;;;5079227;28;20102;-86
2021/03/11 13:36:43;;;;;;;4.47;0.95;;;;;;;;;;5046907;28;20045;-84
2021/03/11 13:39:09;;;;;;;1.58;1.08;;;;;;;;;;5061893;28;20428;-83
2021/03/11 13:41:37;;;;;;;1.83;0.80;;;;;;;;;;5072288;28;20125;-85
2021/03/11 13:44:03;;;;;;;2.42;1.08;;;;;;;;;;5064851;28;20040;-85
2021/03/11 13:46:30;;;;;;;1.73;0.90;;;;;;;;;;5051800;28;20079;-83
2021/03/11 13:48:56;;;;;;;1.80;1.02;;;;;;;;;;5063701;28;20080;-85
2021/03/11 13:51:22;;;;;;;2.20;1.05;;;;;;;;;;5067386;28;20057;-84
2021/03/11 13:53:49;;;;;;;2.45;1.02;;;;;;;;;;5036360;28;20056;-83
2021/03/11 13:56:15;;;;;;;1.83;0.90;;;;;;;;;;5051927;28;20063;-84
2021/03/11 13:58:42;;;;;;;7.15;2.13;;;;;;;;;;5039302;28;20041;-84
2021/03/11 14:01:08;;;;;;;2.78;1.00;;;;;;;;;;5057274;28;20041;-85
2021/03/11 14:03:34;;;;;;;5.22;0.98;;;;;;;;;;5055541;28;20496;-84
2021/03/11 14:06:00;;;;;;;3.03;1.30;;;;;;;;;;5056755;28;20041;-84
2021/03/11 14:08:26;;;;;;;2.08;0.90;;;;;;;;;;5043261;28;20536;-86
2021/03/11 14:10:52;;;;;;;2.60;0.85;;;;;;;;;;5057501;28;20110;-86
2021/03/11 14:13:18;;;;;;;2.80;1.00;;;;;;;;;;5079377;28;20071;-84
2021/03/11 14:15:45;;;;;;;2.30;0.75;;;;;;;;;;5071696;28;20044;-84
2021/03/11 14:18:11;;;;;;;4.47;1.02;;;;;;;;;;5056712;28;20071;-83
2021/03/11 14:20:37;;;;;;;2.42;0.93;;;;;;;;;;5058004;28;20044;-82
2021/03/11 14:23:03;;;;;;;3.67;1.08;;;;;;;;;;5068699;28;20047;-83
2021/03/11 14:25:29;;;;;;;4.07;0.77;;;;;;;;;;5052684;28;20474;-83
2021/03/11 14:27:55;;;;;;;2.13;1.10;;;;;;;;;;5056895;28;20056;-82
2021/03/11 14:30:21;;;;;;;3.15;1.30;;;;;;;;;;5052395;28;20049;-84
2021/03/11 14:32:48;;;;;;;3.85;1.02;;;;;;;;;;5055173;28;20056;-84
2021/03/11 14:35:14;;;;;;;2.13;0.88;;;;;;;;;;5058897;28;20075;-84
2021/03/11 14:37:41;;;;;;;2.92;0.90;;;;;;;;;;5045636;28;20493;-84
2021/03/11 14:40:08;;;;;;;2.60;1.10;;;;;;;;;;5044498;28;20053;-83
2021/03/11 14:42:34;;;;;;;4.45;1.20;;;;;;;;;;5058980;28;20455;-83
2021/03/11 14:45:00;;;;;;;4.55;1.20;;;;;;;;;;5058351;28;20041;-83
2021/03/11 14:47:28;;;;;;;3.50;1.20;;;;;;;;;;5077305;28;20140;-83